Terminal Aerodrome Forecast
Issued by NWS Wilmington, OH

Current Version | Previous Version | Text Only | Print | Product List | Glossary Off
Versions: 1 2 3 4 5 6 7 8 9 10 11 12 13 14 15 16 17 18 19 20 21 22 23 24 25 26

335
FTUS41 KILN 190545 AAA
TAFCVG
TAF AMD
KCVG 190545Z 1906/2012 VRB04KT P6SM BKN150
     FM191000 VRB04KT 5SM BR VCTS OVC080CB
     FM191400 16005KT P6SM VCTS BKN060CB
     FM200000 VRB04KT P6SM BKN100
     FM200600 VRB04KT 5SM BR BKN100=

USA.gov is the U.S. government's official web portal to all federal, state and local government web resources and services.